sensor_id;sensor_type;location;lat;lon;timestamp;pressure;altitude;pressure_sealevel;temperature;humidity
42003;BME280;27693;50.506;30.832;2023-02-10T00:00:13;101536.92;;;-6.00;69.05
42003;BME280;27693;50.506;30.832;2023-02-10T00:01:21;101537.78;;;-5.99;69.67
42003;BME280;27693;50.506;30.832;2023-02-10T00:02:24;101532.13;;;-5.94;69.97
42003;BME280;27693;50.506;30.832;2023-02-10T00:03:26;101537.51;;;-5.87;69.91
42003;BME280;27693;50.506;30.832;2023-02-10T00:04:28;101536.92;;;-6.00;69.23
42003;BME280;27693;50.506;30.832;2023-02-10T00:05:30;101536.03;;;-6.00;69.24
42003;BME280;27693;50.506;30.832;2023-02-10T00:06:35;101536.62;;;-6.06;68.79
42003;BME280;27693;50.506;30.832;2023-02-10T00:07:37;101531.23;;;-6.12;69.50
42003;BME280;27693;50.506;30.832;2023-02-10T00:08:40;101531.23;;;-6.12;69.50
42003;BME280;27693;50.506;30.832;2023-02-10T00:09:43;101537.48;;;-6.05;69.21
42003;BME280;27693;50.506;30.832;2023-02-10T00:10:45;101534.70;;;-6.10;68.42
42003;BME280;27693;50.506;30.832;2023-02-10T00:11:47;101530.66;;;-6.06;69.07
42003;BME280;27693;50.506;30.832;2023-02-10T00:13:00;101546.04;;;-6.03;68.95
42003;BME280;27693;50.506;30.832;2023-02-10T00:14:02;101534.56;;;-6.13;68.29
42003;BME280;27693;50.506;30.832;2023-02-10T00:15:05;101532.03;;;-6.13;68.73
42003;BME280;27693;50.506;30.832;2023-02-10T00:16:12;101535.73;;;-6.06;69.33
42003;BME280;27693;50.506;30.832;2023-02-10T00:17:15;101524.73;;;-6.07;68.99
42003;BME280;27693;50.506;30.832;2023-02-10T00:18:19;101528.95;;;-6.07;68.98
42003;BME280;27693;50.506;30.832;2023-02-10T00:19:23;101526.17;;;-6.12;68.36
42003;BME280;27693;50.506;30.832;2023-02-10T00:20:26;101523.40;;;-6.17;68.82
42003;BME280;27693;50.506;30.832;2023-02-10T00:21:28;101516.98;;;-6.27;68.61
42003;BME280;27693;50.506;30.832;2023-02-10T00:22:30;101516.98;;;-6.27;68.61
42003;BME280;27693;50.506;30.832;2023-02-10T00:23:34;101517.12;;;-6.23;68.69
42003;BME280;27693;50.506;30.832;2023-02-10T00:24:36;101512.23;;;-6.20;69.15
42003;BME280;27693;50.506;30.832;2023-02-10T00:25:38;101512.38;;;-6.17;69.62
42003;BME280;27693;50.506;30.832;2023-02-10T00:26:40;101506.38;;;-6.19;68.96
42003;BME280;27693;50.506;30.832;2023-02-10T00:27:42;101506.38;;;-6.19;68.96
42003;BME280;27693;50.506;30.832;2023-02-10T00:28:45;101515.24;;;-6.28;68.21
42003;BME280;27693;50.506;30.832;2023-02-10T00:29:47;101508.90;;;-6.36;68.56
42003;BME280;27693;50.506;30.832;2023-02-10T00:30:51;101514.38;;;-6.28;68.89
42003;BME280;27693;50.506;30.832;2023-02-10T00:31:52;101506.91;;;-6.42;67.89
42003;BME280;27693;50.506;30.832;2023-02-10T00:32:55;101499.09;;;-6.46;67.83
42003;BME280;27693;50.506;30.832;2023-02-10T00:33:57;101503.03;;;-6.51;67.85
42003;BME280;27693;50.506;30.832;2023-02-10T00:35:01;101502.64;;;-6.59;67.75
42003;BME280;27693;50.506;30.832;2023-02-10T00:36:09;101495.90;;;-6.59;67.85
42003;BME280;27693;50.506;30.832;2023-02-10T00:37:13;101499.86;;;-6.64;68.03
42003;BME280;27693;50.506;30.832;2023-02-10T00:38:15;101499.93;;;-6.62;68.09
42003;BME280;27693;50.506;30.832;2023-02-10T00:39:20;101502.39;;;-6.64;67.94
42003;BME280;27693;50.506;30.832;2023-02-10T00:40:22;101497.97;;;-6.68;68.25
42003;BME280;27693;50.506;30.832;2023-02-10T00:41:27;101496.40;;;-6.66;68.26
42003;BME280;27693;50.506;30.832;2023-02-10T00:42:29;101495.76;;;-6.62;68.34
42003;BME280;27693;50.506;30.832;2023-02-10T00:43:31;101486.59;;;-6.60;68.56
42003;BME280;27693;50.506;30.832;2023-02-10T00:44:35;101486.59;;;-6.60;68.56
42003;BME280;27693;50.506;30.832;2023-02-10T00:45:38;101495.43;;;-6.51;68.67
42003;BME280;27693;50.506;30.832;2023-02-10T00:46:40;101489.91;;;-6.61;67.93
42003;BME280;27693;50.506;30.832;2023-02-10T00:47:42;101497.19;;;-6.67;67.82
42003;BME280;27693;50.506;30.832;2023-02-10T00:48:45;101490.20;;;-6.71;67.74
42003;BME280;27693;50.506;30.832;2023-02-10T00:49:47;101493.62;;;-6.70;67.85
42003;BME280;27693;50.506;30.832;2023-02-10T00:50:50;101497.97;;;-6.68;68.34
42003;BME280;27693;50.506;30.832;2023-02-10T00:51:52;101484.52;;;-6.67;67.87
42003;BME280;27693;50.506;30.832;2023-02-10T00:52:54;101485.63;;;-6.62;68.08
42003;BME280;27693;50.506;30.832;2023-02-10T00:53:56;101496.86;;;-6.56;67.72
42003;BME280;27693;50.506;30.832;2023-02-10T00:55:00;101485.88;;;-6.57;67.08
42003;BME280;27693;50.506;30.832;2023-02-10T00:56:03;101488.48;;;-6.55;66.58
42003;BME280;27693;50.506;30.832;2023-02-10T00:57:05;101478.17;;;-6.59;66.74
42003;BME280;27693;50.506;30.832;2023-02-10T00:58:07;101485.09;;;-6.56;66.54
42003;BME280;27693;50.506;30.832;2023-02-10T00:59:13;101479.46;;;-6.67;66.07
42003;BME280;27693;50.506;30.832;2023-02-10T01:00:17;101482.78;;;-6.68;66.22
42003;BME280;27693;50.506;30.832;2023-02-10T01:01:20;101476.69;;;-6.71;66.27
42003;BME280;27693;50.506;30.832;2023-02-10T01:02:22;101479.04;;;-6.75;66.06
42003;BME280;27693;50.506;30.832;2023-02-10T01:03:25;101474.08;;;-6.73;65.80
42003;BME280;27693;50.506;30.832;2023-02-10T01:04:27;101477.22;;;-6.77;65.78
42003;BME280;27693;50.506;30.832;2023-02-10T01:05:29;101475.40;;;-6.80;65.81
42003;BME280;27693;50.506;30.832;2023-02-10T01:06:32;101472.23;;;-6.76;65.96
42003;BME280;27693;50.506;30.832;2023-02-10T01:07:34;101475.72;;;-6.74;66.13
42003;BME280;27693;50.506;30.832;2023-02-10T01:08:36;101463.95;;;-6.73;65.73
42003;BME280;27693;50.506;30.832;2023-02-10T01:09:40;101466.63;;;-6.70;65.87
42003;BME280;27693;50.506;30.832;2023-02-10T01:10:42;101464.73;;;-6.74;65.87
42003;BME280;27693;50.506;30.832;2023-02-10T01:11:45;101467.41;;;-6.71;65.80
42003;BME280;27693;50.506;30.832;2023-02-10T01:12:48;101460.70;;;-6.70;66.00
42003;BME280;27693;50.506;30.832;2023-02-10T01:13:51;101464.34;;;-6.65;66.86
42003;BME280;27693;50.506;30.832;2023-02-10T01:14:55;101466.16;;;-6.63;65.85
42003;BME280;27693;50.506;30.832;2023-02-10T01:15:57;101463.38;;;-6.67;65.11
42003;BME280;27693;50.506;30.832;2023-02-10T01:17:00;101462.52;;;-6.68;65.95
42003;BME280;27693;50.506;30.832;2023-02-10T01:18:02;101469.48;;;-6.64;65.16
42003;BME280;27693;50.506;30.832;2023-02-10T01:19:05;101463.56;;;-6.64;64.87
42003;BME280;27693;50.506;30.832;2023-02-10T01:20:09;101459.53;;;-6.61;66.12
42003;BME280;27693;50.506;30.832;2023-02-10T01:21:17;101461.27;;;-6.60;65.12
42003;BME280;27693;50.506;30.832;2023-02-10T01:22:19;101457.78;;;-6.62;64.65
42003;BME280;27693;50.506;30.832;2023-02-10T01:23:23;101454.29;;;-6.64;64.53
42003;BME280;27693;50.506;30.832;2023-02-10T01:24:25;101455.31;;;-6.60;65.12
42003;BME280;27693;50.506;30.832;2023-02-10T01:25:27;101460.37;;;-6.60;64.28
42003;BME280;27693;50.506;30.832;2023-02-10T01:26:29;101451.52;;;-6.68;63.97
42003;BME280;27693;50.506;30.832;2023-02-10T01:27:32;101460.46;;;-6.75;64.28
42003;BME280;27693;50.506;30.832;2023-02-10T01:28:40;101459.03;;;-6.70;64.41
42003;BME280;27693;50.506;30.832;2023-02-10T01:29:42;101458.17;;;-6.70;64.44
42003;BME280;27693;50.506;30.832;2023-02-10T01:30:45;101457.14;;;-6.74;64.08
42003;BME280;27693;50.506;30.832;2023-02-10T01:31:48;101459.82;;;-6.71;64.38
42003;BME280;27693;50.506;30.832;2023-02-10T01:32:52;101453.12;;;-6.70;64.28
42003;BME280;27693;50.506;30.832;2023-02-10T01:33:55;101448.91;;;-6.70;64.76
42003;BME280;27693;50.506;30.832;2023-02-10T01:34:57;101449.40;;;-6.61;64.67
42003;BME280;27693;50.506;30.832;2023-02-10T01:36:08;101445.67;;;-6.51;65.97
42003;BME280;27693;50.506;30.832;2023-02-10T01:37:10;101451.91;;;-6.44;64.80
42003;BME280;27693;50.506;30.832;2023-02-10T01:38:13;101442.19;;;-6.53;63.68
42003;BME280;27693;50.506;30.832;2023-02-10T01:39:16;101449.54;;;-6.58;63.79
42003;BME280;27693;50.506;30.832;2023-02-10T01:40:18;101450.33;;;-6.59;63.61
42003;BME280;27693;50.506;30.832;2023-02-10T01:41:22;101452.72;;;-6.62;63.92
42003;BME280;27693;50.506;30.832;2023-02-10T01:42:25;101444.16;;;-6.64;63.99
42003;BME280;27693;50.506;30.832;2023-02-10T01:43:28;101440.55;;;-6.52;66.17
42003;BME280;27693;50.506;30.832;2023-02-10T01:45:38;101443.70;;;-6.40;64.41
42003;BME280;27693;50.506;30.832;2023-02-10T01:46:40;101434.42;;;-6.39;64.15
42003;BME280;27693;50.506;30.832;2023-02-10T01:47:43;101448.11;;;-6.36;64.63
42003;BME280;27693;50.506;30.832;2023-02-10T01:48:47;101440.52;;;-6.36;63.35
42003;BME280;27693;50.506;30.832;2023-02-10T01:49:49;101446.84;;;-6.44;62.83
42003;BME280;27693;50.506;30.832;2023-02-10T01:50:58;101443.52;;;-6.43;62.91
42003;BME280;27693;50.506;30.832;2023-02-10T01:52:03;101438.87;;;-6.52;62.75
42003;BME280;27693;50.506;30.832;2023-02-10T01:53:15;101438.62;;;-6.40;63.20
42003;BME280;27693;50.506;30.832;2023-02-10T01:54:22;101439.04;;;-6.49;63.22
42003;BME280;27693;50.506;30.832;2023-02-10T01:55:31;101437.84;;;-6.55;62.80
42003;BME280;27693;50.506;30.832;2023-02-10T01:56:32;101436.73;;;-6.61;62.91
42003;BME280;27693;50.506;30.832;2023-02-10T01:57:35;101438.48;;;-6.60;63.58
42003;BME280;27693;50.506;30.832;2023-02-10T01:58:41;101434.34;;;-6.58;63.30
42003;BME280;27693;50.506;30.832;2023-02-10T01:59:45;101431.43;;;-6.65;63.17
42003;BME280;27693;50.506;30.832;2023-02-10T02:00:49;101427.33;;;-6.63;64.02
42003;BME280;27693;50.506;30.832;2023-02-10T02:01:51;101425.25;;;-6.54;63.79
42003;BME280;27693;50.506;30.832;2023-02-10T02:02:55;101434.52;;;-6.54;63.40
42003;BME280;27693;50.506;30.832;2023-02-10T02:03:58;101441.47;;;-6.50;63.41
42003;BME280;27693;50.506;30.832;2023-02-10T02:05:05;101431.34;;;-6.50;63.14
42003;BME280;27693;50.506;30.832;2023-02-10T02:06:09;101427.30;;;-6.47;63.17
42003;BME280;27693;50.506;30.832;2023-02-10T02:07:12;101425.35;;;-6.52;62.76
42003;BME280;27693;50.506;30.832;2023-02-10T02:08:28;101424.53;;;-6.51;62.77
42003;BME280;27693;50.506;30.832;2023-02-10T02:09:32;101428.02;;;-6.49;62.64
42003;BME280;27693;50.506;30.832;2023-02-10T02:12:05;101424.70;;;-6.48;62.61
42003;BME280;27693;50.506;30.832;2023-02-10T02:17:29;101425.42;;;-6.51;61.91
42003;BME280;27693;50.506;30.832;2023-02-10T02:18:47;101418.68;;;-6.50;61.99
42003;BME280;27693;50.506;30.832;2023-02-10T02:21:38;101427.78;;;-6.54;62.03
42003;BME280;27693;50.506;30.832;2023-02-10T02:22:54;101422.10;;;-6.50;62.11
42003;BME280;27693;50.506;30.832;2023-02-10T02:28:21;101419.77;;;-6.45;61.62
42003;BME280;27693;50.506;30.832;2023-02-10T02:33:22;101428.97;;;-6.64;62.44
42003;BME280;27693;50.506;30.832;2023-02-10T02:36:12;101427.78;;;-6.54;62.21
42003;BME280;27693;50.506;30.832;2023-02-10T02:37:31;101424.08;;;-6.61;62.24
42003;BME280;27693;50.506;30.832;2023-02-10T02:38:41;101426.61;;;-6.61;62.43
42003;BME280;27693;50.506;30.832;2023-02-10T02:39:47;101424.22;;;-6.58;62.36
42003;BME280;27693;50.506;30.832;2023-02-10T02:40:49;101427.71;;;-6.55;62.28
42003;BME280;27693;50.506;30.832;2023-02-10T02:43:12;101412.52;;;-6.55;62.38
42003;BME280;27693;50.506;30.832;2023-02-10T02:44:14;101415.29;;;-6.51;62.49
42003;BME280;27693;50.506;30.832;2023-02-10T02:45:32;101417.75;;;-6.52;62.17
42003;BME280;27693;50.506;30.832;2023-02-10T02:46:53;101421.86;;;-6.54;61.98
42003;BME280;27693;50.506;30.832;2023-02-10T02:49:26;101426.86;;;-6.56;62.09
42003;BME280;27693;50.506;30.832;2023-02-10T02:50:35;101423.30;;;-6.60;62.01
42003;BME280;27693;50.506;30.832;2023-02-10T02:52:02;101422.47;;;-6.59;61.86
42003;BME280;27693;50.506;30.832;2023-02-10T02:53:27;101420.90;;;-6.56;61.97
42003;BME280;27693;50.506;30.832;2023-02-10T02:57:24;101420.49;;;-6.48;62.00
42003;BME280;27693;50.506;30.832;2023-02-10T02:58:33;101424.70;;;-6.48;61.81
42003;BME280;27693;50.506;30.832;2023-02-10T02:59:44;101416.31;;;-6.47;61.83
42003;BME280;27693;50.506;30.832;2023-02-10T03:00:48;101421.52;;;-6.44;62.01
42003;BME280;27693;50.506;30.832;2023-02-10T03:02:03;101420.02;;;-6.40;62.44
42003;BME280;27693;50.506;30.832;2023-02-10T03:03:04;101413.30;;;-6.40;61.88
42003;BME280;27693;50.506;30.832;2023-02-10T03:04:07;101410.13;;;-6.36;62.05
42003;BME280;27693;50.506;30.832;2023-02-10T03:05:17;101413.13;;;-6.27;61.97
42003;BME280;27693;50.506;30.832;2023-02-10T03:06:20;101408.98;;;-6.24;61.60
42003;BME280;27693;50.506;30.832;2023-02-10T03:07:23;101403.23;;;-6.22;61.80
42003;BME280;27693;50.506;30.832;2023-02-10T03:08:25;101404.88;;;-6.22;61.37
42003;BME280;27693;50.506;30.832;2023-02-10T03:09:28;101403.30;;;-6.20;61.97
42003;BME280;27693;50.506;30.832;2023-02-10T03:10:31;101402.64;;;-6.16;61.72
42003;BME280;27693;50.506;30.832;2023-02-10T03:11:33;101402.02;;;-6.12;61.20
42003;BME280;27693;50.506;30.832;2023-02-10T03:12:35;101403.91;;;-6.24;60.97
42003;BME280;27693;50.506;30.832;2023-02-10T03:13:37;101407.11;;;-6.29;61.14
42003;BME280;27693;50.506;30.832;2023-02-10T03:14:39;101406.97;;;-6.32;61.22
42003;BME280;27693;50.506;30.832;2023-02-10T03:15:41;101404.44;;;-6.32;61.21
42003;BME280;27693;50.506;30.832;2023-02-10T03:16:45;101401.97;;;-6.30;61.24
42003;BME280;27693;50.506;30.832;2023-02-10T03:17:48;101401.97;;;-6.30;61.76
42003;BME280;27693;50.506;30.832;2023-02-10T03:18:50;101407.27;;;-6.26;61.23
42003;BME280;27693;50.506;30.832;2023-02-10T03:19:52;101404.73;;;-6.26;61.76
42003;BME280;27693;50.506;30.832;2023-02-10T03:20:54;101402.50;;;-6.19;61.65
42003;BME280;27693;50.506;30.832;2023-02-10T03:21:56;101401.78;;;-6.17;62.27
42003;BME280;27693;50.506;30.832;2023-02-10T03:22:58;101394.55;;;-6.09;62.00
42003;BME280;27693;50.506;30.832;2023-02-10T03:24:00;101398.76;;;-6.10;61.47
42003;BME280;27693;50.506;30.832;2023-02-10T03:25:04;101396.29;;;-6.08;61.52
42003;BME280;27693;50.506;30.832;2023-02-10T03:26:07;101394.05;;;-6.02;62.27
42003;BME280;27693;50.506;30.832;2023-02-10T03:27:10;101394.25;;;-5.97;62.80
42003;BME280;27693;50.506;30.832;2023-02-10T03:28:13;101386.14;;;-5.90;62.71
42003;BME280;27693;50.506;30.832;2023-02-10T03:29:16;101383.67;;;-5.88;62.28
42003;BME280;27693;50.506;30.832;2023-02-10T03:30:18;101383.45;;;-5.93;61.56
42003;BME280;27693;50.506;30.832;2023-02-10T03:31:21;101380.91;;;-5.93;61.56
42003;BME280;27693;50.506;30.832;2023-02-10T03:32:24;101381.80;;;-5.92;62.05
42003;BME280;27693;50.506;30.832;2023-02-10T03:33:27;101380.28;;;-5.89;62.75
42003;BME280;27693;50.506;30.832;2023-02-10T03:34:30;101377.88;;;-5.86;62.07
42003;BME280;27693;50.506;30.832;2023-02-10T03:35:37;101375.57;;;-5.81;62.34
42003;BME280;27693;50.506;30.832;2023-02-10T03:36:41;101375.57;;;-5.81;62.36
42003;BME280;27693;50.506;30.832;2023-02-10T03:37:43;101379.56;;;-5.86;60.98
42003;BME280;27693;50.506;30.832;2023-02-10T03:38:45;101375.36;;;-6.04;60.19
42003;BME280;27693;50.506;30.832;2023-02-10T03:39:47;101375.36;;;-6.04;60.19
42003;BME280;27693;50.506;30.832;2023-02-10T03:40:51;101383.78;;;-6.05;60.29
42003;BME280;27693;50.506;30.832;2023-02-10T03:41:55;101375.65;;;-5.98;61.30
42003;BME280;27693;50.506;30.832;2023-02-10T03:42:58;101374.20;;;-5.92;60.98
42003;BME280;27693;50.506;30.832;2023-02-10T03:44:00;101368.63;;;-5.85;61.88
42003;BME280;27693;50.506;30.832;2023-02-10T03:45:03;101364.64;;;-5.80;62.53
42003;BME280;27693;50.506;30.832;2023-02-10T03:46:05;101369.20;;;-5.73;62.33
42003;BME280;27693;50.506;30.832;2023-02-10T03:47:08;101363.75;;;-5.63;62.80
42003;BME280;27693;50.506;30.832;2023-02-10T03:48:10;101363.75;;;-5.63;62.08
42003;BME280;27693;50.506;30.832;2023-02-10T03:49:12;101362.95;;;-5.62;62.42
42003;BME280;27693;50.506;30.832;2023-02-10T03:50:15;101362.83;;;-5.65;61.89
42003;BME280;27693;50.506;30.832;2023-02-10T03:51:17;101362.67;;;-5.68;62.14
42003;BME280;27693;50.506;30.832;2023-02-10T03:52:20;101358.20;;;-5.73;61.27
42003;BME280;27693;50.506;30.832;2023-02-10T03:53:22;101364.80;;;-5.77;61.72
42003;BME280;27693;50.506;30.832;2023-02-10T03:54:25;101351.13;;;-5.99;61.78
42003;BME280;27693;50.506;30.832;2023-02-10T03:55:28;101357.60;;;-5.86;62.12
42003;BME280;27693;50.506;30.832;2023-02-10T03:56:31;101358.33;;;-5.88;62.07
42003;BME280;27693;50.506;30.832;2023-02-10T03:57:33;101358.33;;;-5.88;62.38
42003;BME280;27693;50.506;30.832;2023-02-10T03:58:35;101353.42;;;-5.85;62.74
42003;BME280;27693;50.506;30.832;2023-02-10T03:59:38;101350.79;;;-5.87;62.22
42003;BME280;27693;50.506;30.832;2023-02-10T04:00:40;101354.56;;;-5.79;62.83
42003;BME280;27693;50.506;30.832;2023-02-10T04:01:42;101355.16;;;-5.84;62.63
42003;BME280;27693;50.506;30.832;2023-02-10T04:02:44;101354.44;;;-5.82;62.54
42003;BME280;27693;50.506;30.832;2023-02-10T04:03:47;101349.80;;;-5.90;62.36
42003;BME280;27693;50.506;30.832;2023-02-10T04:04:49;101350.66;;;-5.90;61.92
42003;BME280;27693;50.506;30.832;2023-02-10T04:05:51;101357.91;;;-5.98;61.74
42003;BME280;27693;50.506;30.832;2023-02-10T04:06:54;101354.30;;;-6.03;63.08
42003;BME280;27693;50.506;30.832;2023-02-10T04:07:56;101350.79;;;-5.87;62.66
42003;BME280;27693;50.506;30.832;2023-02-10T04:08:59;101346.25;;;-5.94;61.98
42003;BME280;27693;50.506;30.832;2023-02-10T04:10:02;101343.62;;;-5.96;62.47
42003;BME280;27693;50.506;30.832;2023-02-10T04:11:05;101343.13;;;-5.88;62.61
42003;BME280;27693;50.506;30.832;2023-02-10T04:12:09;101347.40;;;-5.87;62.09
42003;BME280;27693;50.506;30.832;2023-02-10T04:13:11;101346.45;;;-5.89;62.71
42003;BME280;27693;50.506;30.832;2023-02-10T04:14:14;101355.06;;;-5.86;63.16
42003;BME280;27693;50.506;30.832;2023-02-10T04:15:22;101358.92;;;-5.94;61.35
42003;BME280;27693;50.506;30.832;2023-02-10T04:16:25;101352.84;;;-5.98;61.58
42003;BME280;27693;50.506;30.832;2023-02-10T04:17:29;101349.99;;;-5.86;62.40
42003;BME280;27693;50.506;30.832;2023-02-10T04:18:32;101355.16;;;-5.84;62.65
42003;BME280;27693;50.506;30.832;2023-02-10T04:19:35;101350.66;;;-5.90;62.25
42003;BME280;27693;50.506;30.832;2023-02-10T04:20:37;101354.14;;;-5.88;62.63
42003;BME280;27693;50.506;30.832;2023-02-10T04:21:39;101348.64;;;-5.79;63.52
42003;BME280;27693;50.506;30.832;2023-02-10T04:22:41;101355.00;;;-5.87;62.68
42003;BME280;27693;50.506;30.832;2023-02-10T04:23:45;101351.45;;;-5.91;62.89
42003;BME280;27693;50.506;30.832;2023-02-10T04:24:49;101355.16;;;-5.84;62.76
42003;BME280;27693;50.506;30.832;2023-02-10T04:25:51;101351.80;;;-5.83;63.26
42003;BME280;27693;50.506;30.832;2023-02-10T04:26:53;101348.47;;;-5.82;63.42
42003;BME280;27693;50.506;30.832;2023-02-10T04:27:55;101346.16;;;-5.78;63.65
42003;BME280;27693;50.506;30.832;2023-02-10T04:28:57;101355.58;;;-5.75;63.54
42003;BME280;27693;50.506;30.832;2023-02-10T04:29:59;101353.83;;;-5.76;63.42
42003;BME280;27693;50.506;30.832;2023-02-10T04:31:02;101343.69;;;-5.76;64.32
42003;BME280;27693;50.506;30.832;2023-02-10T04:32:06;101353.32;;;-5.69;64.23
42003;BME280;27693;50.506;30.832;2023-02-10T04:33:09;101345.72;;;-5.69;63.75
42003;BME280;27693;50.506;30.832;2023-02-10T04:34:11;101356.23;;;-5.79;62.83
42003;BME280;27693;50.506;30.832;2023-02-10T04:35:13;101349.36;;;-5.82;63.63
42003;BME280;27693;50.506;30.832;2023-02-10T04:36:15;101352.75;;;-5.81;63.63
42003;BME280;27693;50.506;30.832;2023-02-10T04:37:18;101346.73;;;-5.83;63.35
42003;BME280;27693;50.506;30.832;2023-02-10T04:38:21;101346.61;;;-5.86;63.74
42003;BME280;27693;50.506;30.832;2023-02-10T04:39:24;101351.52;;;-5.89;63.38
42003;BME280;27693;50.506;30.832;2023-02-10T04:40:26;101349.39;;;-6.00;62.95
42003;BME280;27693;50.506;30.832;2023-02-10T04:41:28;101338.08;;;-6.06;63.24
42003;BME280;27693;50.506;30.832;2023-02-10T04:42:30;101338.08;;;-6.06;63.24
42003;BME280;27693;50.506;30.832;2023-02-10T04:43:33;101354.80;;;-6.10;62.58
42003;BME280;27693;50.506;30.832;2023-02-10T04:44:35;101346.41;;;-6.09;63.41
42003;BME280;27693;50.506;30.832;2023-02-10T04:45:38;101349.23;;;-6.03;64.09
42003;BME280;27693;50.506;30.832;2023-02-10T04:46:40;101348.63;;;-5.97;63.89
42003;BME280;27693;50.506;30.832;2023-02-10T04:47:43;101347.19;;;-6.10;63.25
42003;BME280;27693;50.506;30.832;2023-02-10T04:48:44;101344.82;;;-6.07;63.73
42003;BME280;27693;50.506;30.832;2023-02-10T04:49:46;101349.09;;;-6.06;64.40
42003;BME280;27693;50.506;30.832;2023-02-10T04:50:49;101342.28;;;-6.07;64.40
42003;BME280;27693;50.506;30.832;2023-02-10T04:51:51;101343.80;;;-6.11;64.42
42003;BME280;27693;50.506;30.832;2023-02-10T04:52:54;101327.88;;;-6.08;64.18
42003;BME280;27693;50.506;30.832;2023-02-10T04:53:56;101330.57;;;-6.05;64.83
42003;BME280;27693;50.506;30.832;2023-02-10T04:54:58;101323.59;;;-6.09;64.90
42003;BME280;27693;50.506;30.832;2023-02-10T04:56:00;101333.60;;;-6.12;63.60
42003;BME280;27693;50.506;30.832;2023-02-10T04:57:02;101335.34;;;-6.11;64.38
42003;BME280;27693;50.506;30.832;2023-02-10T04:58:04;101332.15;;;-6.07;64.49
42003;BME280;27693;50.506;30.832;2023-02-10T04:59:07;101331.48;;;-6.03;65.10
42003;BME280;27693;50.506;30.832;2023-02-10T05:00:12;101328.86;;;-5.86;65.17
42003;BME280;27693;50.506;30.832;2023-02-10T05:01:15;101328.20;;;-5.82;65.53
42003;BME280;27693;50.506;30.832;2023-02-10T05:02:17;101325.66;;;-5.82;65.06
42003;BME280;27693;50.506;30.832;2023-02-10T05:03:19;101334.44;;;-5.94;64.20
42003;BME280;27693;50.506;30.832;2023-02-10T05:04:21;101332.19;;;-5.87;64.53
42003;BME280;27693;50.506;30.832;2023-02-10T05:05:25;101331.46;;;-5.85;64.78
42003;BME280;27693;50.506;30.832;2023-02-10T05:06:29;101325.53;;;-5.85;64.00
42003;BME280;27693;50.506;30.832;2023-02-10T05:07:31;101324.08;;;-5.80;65.43
42003;BME280;27693;50.506;30.832;2023-02-10T05:08:33;101320.08;;;-5.75;65.09
42003;BME280;27693;50.506;30.832;2023-02-10T05:09:35;101326.89;;;-5.74;65.08
42003;BME280;27693;50.506;30.832;2023-02-10T05:10:37;101329.20;;;-5.79;64.26
42003;BME280;27693;50.506;30.832;2023-02-10T05:11:40;101333.94;;;-5.86;63.84
42003;BME280;27693;50.506;30.832;2023-02-10T05:12:44;101326.05;;;-5.92;63.86
42003;BME280;27693;50.506;30.832;2023-02-10T05:13:46;101332.56;;;-5.98;63.33
42003;BME280;27693;50.506;30.832;2023-02-10T05:14:48;101331.48;;;-6.03;63.80
42003;BME280;27693;50.506;30.832;2023-02-10T05:15:50;101324.09;;;-6.16;63.28
42003;BME280;27693;50.506;30.832;2023-02-10T05:16:52;101329.45;;;-6.10;64.05
42003;BME280;27693;50.506;30.832;2023-02-10T05:17:55;101333.10;;;-6.05;64.43
42003;BME280;27693;50.506;30.832;2023-02-10T05:18:56;101331.65;;;-6.00;64.45
42003;BME280;27693;50.506;30.832;2023-02-10T05:20:00;101335.77;;;-6.02;63.83
42003;BME280;27693;50.506;30.832;2023-02-10T05:21:03;101335.64;;;-6.05;63.48
42003;BME280;27693;50.506;30.832;2023-02-10T05:22:05;101338.80;;;-6.09;63.51
42003;BME280;27693;50.506;30.832;2023-02-10T05:23:07;101351.63;;;-6.06;63.13
42003;BME280;27693;50.506;30.832;2023-02-10T05:24:09;101344.66;;;-6.10;62.92
42003;BME280;27693;50.506;30.832;2023-02-10T05:25:11;101339.59;;;-6.10;62.96
42003;BME280;27693;50.506;30.832;2023-02-10T05:26:15;101335.25;;;-6.13;62.86
42003;BME280;27693;50.506;30.832;2023-02-10T05:27:17;101345.81;;;-6.21;62.75
42003;BME280;27693;50.506;30.832;2023-02-10T05:28:22;101339.96;;;-6.20;63.42
42003;BME280;27693;50.506;30.832;2023-02-10T05:29:25;101338.51;;;-6.15;63.12
42003;BME280;27693;50.506;30.832;2023-02-10T05:30:27;101336.20;;;-6.11;63.12
42003;BME280;27693;50.506;30.832;2023-02-10T05:31:29;101340.84;;;-6.02;63.35
42003;BME280;27693;50.506;30.832;2023-02-10T05:32:32;101339.88;;;-6.04;62.68
42003;BME280;27693;50.506;30.832;2023-02-10T05:33:35;101342.41;;;-6.04;62.65
42003;BME280;27693;50.506;30.832;2023-02-10T05:34:37;101350.18;;;-6.01;62.31
42003;BME280;27693;50.506;30.832;2023-02-10T05:35:40;101345.05;;;-6.02;62.22
42003;BME280;27693;50.506;30.832;2023-02-10T05:36:43;101339.25;;;-6.00;62.41
42003;BME280;27693;50.506;30.832;2023-02-10T05:37:45;101333.42;;;-5.97;62.56
42003;BME280;27693;50.506;30.832;2023-02-10T05:38:47;101337.03;;;-5.92;62.37
42003;BME280;27693;50.506;30.832;2023-02-10T05:40:10;101346.61;;;-5.86;62.82
42003;BME280;27693;50.506;30.832;2023-02-10T05:41:12;101335.89;;;-5.81;62.46
42003;BME280;27693;50.506;30.832;2023-02-10T05:42:14;101341.47;;;-5.70;63.55
42003;BME280;27693;50.506;30.832;2023-02-10T05:43:17;101335.58;;;-5.69;62.76
42003;BME280;27693;50.506;30.832;2023-02-10T05:44:19;101335.58;;;-5.69;62.76
42003;BME280;27693;50.506;30.832;2023-02-10T05:45:22;101336.59;;;-5.65;63.22
42003;BME280;27693;50.506;30.832;2023-02-10T05:46:24;101329.20;;;-5.61;63.62
42003;BME280;27693;50.506;30.832;2023-02-10T05:47:26;101337.98;;;-5.72;62.46
42003;BME280;27693;50.506;30.832;2023-02-10T05:48:29;101334.84;;;-5.66;63.23
42003;BME280;27693;50.506;30.832;2023-02-10T05:49:31;101334.27;;;-5.61;63.14
42003;BME280;27693;50.506;30.832;2023-02-10T05:50:33;101325.20;;;-5.55;63.54
42003;BME280;27693;50.506;30.832;2023-02-10T05:51:35;101328.95;;;-5.47;63.62
42003;BME280;27693;50.506;30.832;2023-02-10T05:52:37;101328.31;;;-5.43;63.30